createdAt,value
2023-01-03T00:00:03.302Z,10.98
2023-01-03T00:01:03.663Z,10.97
2023-01-03T00:02:03.496Z,10.92
2023-01-03T00:03:03.357Z,10.97
2023-01-03T00:04:03.489Z,10.87
2023-01-03T00:05:03.505Z,10.8
2023-01-03T00:06:03.384Z,10.86
2023-01-03T00:07:03.298Z,10.82
2023-01-03T00:08:03.280Z,10.84
2023-01-03T00:09:03.281Z,10.76
2023-01-03T00:10:03.285Z,10.77
2023-01-03T00:11:03.354Z,10.77
2023-01-03T00:12:03.304Z,10.83
2023-01-03T00:13:03.283Z,10.83
2023-01-03T00:14:03.294Z,10.9
2023-01-03T00:15:03.283Z,10.83
2023-01-03T00:16:03.273Z,10.84
2023-01-03T00:17:03.678Z,10.8
2023-01-03T00:18:03.342Z,10.79
2023-01-03T00:19:03.301Z,10.84
2023-01-03T00:20:03.307Z,10.83
2023-01-03T00:21:03.326Z,10.84
2023-01-03T00:22:03.447Z,10.76
2023-01-03T00:23:03.324Z,10.75
2023-01-03T00:24:03.330Z,10.8
2023-01-03T00:25:03.325Z,10.8
2023-01-03T00:26:03.310Z,10.8
2023-01-03T00:27:03.377Z,10.83
2023-01-03T00:28:03.325Z,10.77
2023-01-03T00:29:03.323Z,10.68
2023-01-03T00:30:06.166Z,10.79
2023-01-03T00:31:03.536Z,10.65
2023-01-03T00:32:03.300Z,10.75
2023-01-03T00:33:03.346Z,10.69
2023-01-03T00:34:03.322Z,10.59
2023-01-03T00:35:09.321Z,10.61
2023-01-03T00:36:03.332Z,10.58
2023-01-03T00:37:03.366Z,10.61
2023-01-03T00:38:03.426Z,10.51
2023-01-03T00:39:03.353Z,10.61
2023-01-03T00:40:03.338Z,10.49
2023-01-03T00:41:06.416Z,10.57
2023-01-03T00:42:03.373Z,10.58
2023-01-03T00:43:03.361Z,10.62
2023-01-03T00:44:03.328Z,10.61
2023-01-03T00:45:03.374Z,10.55
2023-01-03T00:46:03.583Z,10.58
2023-01-03T00:47:03.341Z,10.57
2023-01-03T00:48:03.357Z,10.58
2023-01-03T00:49:03.247Z,10.61
2023-01-03T00:50:03.358Z,10.64
2023-01-03T00:51:03.015Z,10.61
2023-01-03T00:52:06.148Z,10.59
2023-01-03T00:53:03.393Z,10.62
2023-01-03T00:54:03.366Z,10.57
2023-01-03T00:55:03.436Z,10.68
2023-01-03T00:56:03.189Z,10.62
2023-01-03T00:57:03.201Z,10.64
2023-01-03T00:58:03.424Z,10.64
2023-01-03T00:59:03.381Z,10.59
2023-01-03T01:00:03.290Z,10.55
2023-01-03T01:01:03.469Z,10.59
2023-01-03T01:02:03.946Z,10.64
2023-01-03T01:03:06.867Z,10.55
2023-01-03T01:04:03.593Z,10.57
2023-01-03T01:05:03.433Z,10.58
2023-01-03T01:06:03.363Z,10.62
2023-01-03T01:07:03.436Z,10.51
2023-01-03T01:08:06.181Z,10.51
2023-01-03T01:09:03.397Z,10.49
2023-01-03T01:10:03.429Z,10.53
2023-01-03T01:11:03.190Z,10.42
2023-01-03T01:12:03.394Z,10.36
2023-01-03T01:13:03.391Z,10.45
2023-01-03T01:14:06.481Z,10.43
2023-01-03T01:15:03.398Z,10.34
2023-01-03T01:16:03.688Z,10.39
2023-01-03T01:17:03.382Z,10.43
2023-01-03T01:18:03.372Z,10.41
2023-01-03T01:19:06.421Z,10.31
2023-01-03T01:20:03.409Z,10.38
2023-01-03T01:21:03.415Z,10.3
2023-01-03T01:22:03.396Z,10.28
2023-01-03T01:23:03.407Z,10.38
2023-01-03T01:24:03.433Z,10.27
2023-01-03T01:25:06.623Z,10.27
2023-01-03T01:26:03.378Z,10.25
2023-01-03T01:27:03.394Z,10.21
2023-01-03T01:28:03.421Z,10.25
2023-01-03T01:29:03.401Z,10.24
2023-01-03T01:30:06.045Z,10.3
2023-01-03T01:31:03.300Z,10.24
2023-01-03T01:32:03.152Z,10.23
2023-01-03T01:33:03.398Z,10.27
2023-01-03T01:34:03.432Z,10.24
2023-01-03T01:35:03.482Z,10.24
2023-01-03T01:36:03.397Z,10.18
2023-01-03T01:37:03.453Z,10.3
2023-01-03T01:38:03.407Z,10.17
2023-01-03T01:39:03.441Z,10.17
2023-01-03T01:40:03.449Z,10.07
2023-01-03T01:41:06.271Z,10.09
2023-01-03T01:42:03.437Z,10.07
2023-01-03T01:43:03.431Z,10.15
2023-01-03T01:44:03.444Z,10.24
2023-01-03T01:45:03.457Z,10.17
2023-01-03T01:46:03.531Z,10.18
2023-01-03T01:47:03.418Z,10.24
2023-01-03T01:48:03.425Z,10.13
2023-01-03T01:49:03.449Z,10.15
2023-01-03T01:50:03.456Z,10.15
2023-01-03T01:51:03.437Z,10.15
2023-01-03T01:52:06.447Z,10.15
2023-01-03T01:53:03.538Z,10.17
2023-01-03T01:54:03.505Z,10.21
2023-01-03T01:55:03.465Z,10.25
2023-01-03T01:56:03.469Z,10.24
2023-01-03T01:57:03.477Z,10.17
2023-01-03T01:58:03.475Z,10.3
2023-01-03T01:59:03.443Z,10.17
2023-01-03T02:00:03.458Z,10.18
2023-01-03T02:01:03.454Z,10.24
2023-01-03T02:02:03.931Z,10.25
2023-01-03T02:03:06.770Z,10.25
2023-01-03T02:04:03.568Z,10.3
2023-01-03T02:05:03.447Z,10.2
2023-01-03T02:06:03.475Z,10.23
2023-01-03T02:07:03.512Z,10.27
2023-01-03T02:08:03.463Z,10.27
2023-01-03T02:09:03.504Z,10.34
2023-01-03T02:10:03.662Z,10.34
2023-01-03T02:11:03.495Z,10.38
2023-01-03T02:12:03.522Z,10.3
2023-01-03T02:13:03.625Z,10.41
2023-01-03T02:14:06.633Z,10.41
2023-01-03T02:15:03.492Z,10.27
2023-01-03T02:16:03.758Z,10.36
2023-01-03T02:17:03.524Z,10.39
2023-01-03T02:18:03.497Z,10.3
2023-01-03T02:19:03.580Z,10.3
2023-01-03T02:20:03.487Z,10.25
2023-01-03T02:21:03.489Z,10.27
2023-01-03T02:22:03.488Z,10.36
2023-01-03T02:23:03.489Z,10.36
2023-01-03T02:24:03.507Z,10.33
2023-01-03T02:25:06.272Z,10.38
2023-01-03T02:26:03.520Z,10.38
2023-01-03T02:27:03.539Z,10.31
2023-01-03T02:28:03.553Z,10.27
2023-01-03T02:29:03.675Z,10.21
2023-01-03T02:30:03.493Z,10.36
2023-01-03T02:31:03.705Z,10.25
2023-01-03T02:32:03.510Z,10.39
2023-01-03T02:33:03.523Z,10.21
2023-01-03T02:34:03.548Z,10.25
2023-01-03T02:35:03.529Z,10.25
2023-01-03T02:36:03.506Z,10.3
2023-01-03T02:37:03.531Z,10.24
2023-01-03T02:38:03.530Z,10.28
2023-01-03T02:39:03.548Z,10.27
2023-01-03T02:40:03.509Z,10.28
2023-01-03T02:41:03.540Z,10.25
2023-01-03T02:42:03.526Z,10.2
2023-01-03T02:43:03.538Z,10.1
2023-01-03T02:44:03.564Z,10.17
2023-01-03T02:45:03.560Z,10.1
2023-01-03T02:46:03.879Z,9.97
2023-01-03T02:47:03.810Z,10.12
2023-01-03T02:48:03.565Z,9.99
2023-01-03T02:49:03.548Z,9.95
2023-01-03T02:50:03.547Z,10
2023-01-03T02:51:03.531Z,9.95
2023-01-03T02:52:03.548Z,9.92
2023-01-03T02:53:03.529Z,9.94
2023-01-03T02:54:03.544Z,10.06
2023-01-03T02:55:03.569Z,9.94
2023-01-03T02:56:03.567Z,9.97
2023-01-03T02:57:06.617Z,10.02
2023-01-03T02:58:03.580Z,9.9
2023-01-03T02:59:03.593Z,9.9
2023-01-03T03:00:03.596Z,9.94
2023-01-03T03:01:03.571Z,9.92
2023-01-03T03:02:03.948Z,9.94
2023-01-03T03:03:04.022Z,9.9
2023-01-03T03:04:03.783Z,9.9
2023-01-03T03:05:03.576Z,9.97
2023-01-03T03:06:03.567Z,9.94
2023-01-03T03:07:03.610Z,9.92
2023-01-03T03:08:06.389Z,10
2023-01-03T03:09:03.582Z,9.94
2023-01-03T03:10:03.574Z,9.87
2023-01-03T03:11:03.558Z,9.91
2023-01-03T03:12:03.555Z,9.91
2023-01-03T03:13:03.596Z,9.88
2023-01-03T03:14:03.605Z,9.88
2023-01-03T03:15:03.577Z,9.91
2023-01-03T03:16:03.921Z,9.85
2023-01-03T03:17:03.624Z,9.91
2023-01-03T03:18:03.628Z,9.87
2023-01-03T03:19:06.896Z,9.87
2023-01-03T03:20:10.601Z,9.9
2023-01-03T03:21:03.585Z,9.92
2023-01-03T03:22:03.578Z,9.77
2023-01-03T03:23:03.575Z,9.8
2023-01-03T03:24:03.625Z,9.85
2023-01-03T03:25:03.594Z,9.76
2023-01-03T03:26:03.580Z,9.63
2023-01-03T03:27:03.593Z,9.55
2023-01-03T03:28:03.607Z,9.54
2023-01-03T03:29:03.668Z,9.58
2023-01-03T03:30:06.383Z,9.51
2023-01-03T03:31:03.810Z,9.48
2023-01-03T03:32:03.608Z,9.47
2023-01-03T03:33:03.619Z,9.44
2023-01-03T03:34:03.618Z,9.33
2023-01-03T03:35:06.626Z,9.36
2023-01-03T03:36:03.608Z,9.31
2023-01-03T03:37:03.601Z,9.22
2023-01-03T03:38:03.609Z,9.33
2023-01-03T03:39:03.617Z,9.29
2023-01-03T03:40:03.612Z,9.34
2023-01-03T03:41:06.390Z,9.33
2023-01-03T03:42:03.619Z,9.31
2023-01-03T03:43:03.613Z,9.29
2023-01-03T03:44:03.637Z,9.31
2023-01-03T03:45:07.333Z,9.31
2023-01-03T03:46:06.378Z,9.26
2023-01-03T03:47:12.212Z,9.29
2023-01-03T03:48:03.652Z,9.19
2023-01-03T03:49:03.675Z,9.16
2023-01-03T03:50:03.635Z,9.22
2023-01-03T03:51:03.627Z,9.3
2023-01-03T03:52:06.387Z,9.27
2023-01-03T03:53:03.668Z,9.21
2023-01-03T03:54:03.656Z,9.19
2023-01-03T03:55:03.612Z,9.18
2023-01-03T03:56:03.623Z,9.21
2023-01-03T03:57:06.400Z,9.12
2023-01-03T03:58:03.671Z,9.13
2023-01-03T03:59:03.660Z,9.08
2023-01-03T04:00:03.671Z,9.03
2023-01-03T04:01:03.672Z,8.93
2023-01-03T04:02:04.105Z,8.87
2023-01-03T04:03:06.876Z,8.86
2023-01-03T04:04:03.886Z,8.81
2023-01-03T04:05:03.677Z,8.69
2023-01-03T04:06:03.687Z,8.77
2023-01-03T04:07:03.660Z,8.82
2023-01-03T04:08:06.718Z,8.77
2023-01-03T04:09:03.696Z,8.84
2023-01-03T04:10:03.654Z,8.75
2023-01-03T04:11:03.668Z,8.63
2023-01-03T04:12:03.663Z,8.78
2023-01-03T04:13:03.662Z,8.72
2023-01-03T04:14:03.673Z,8.57
2023-01-03T04:15:03.673Z,8.53
2023-01-03T04:16:03.939Z,8.63
2023-01-03T04:17:03.808Z,8.6
2023-01-03T04:18:03.680Z,8.54
2023-01-03T04:19:03.903Z,8.49
2023-01-03T04:20:03.724Z,8.41
2023-01-03T04:21:03.727Z,8.35
2023-01-03T04:22:03.678Z,8.38
2023-01-03T04:23:03.685Z,8.38
2023-01-03T04:24:03.715Z,8.39
2023-01-03T04:25:03.681Z,8.36
2023-01-03T04:26:03.708Z,8.35
2023-01-03T04:27:03.709Z,8.35
2023-01-03T04:28:03.706Z,8.42
2023-01-03T04:29:03.720Z,8.46
2023-01-03T04:30:06.458Z,8.44
2023-01-03T04:31:03.686Z,8.35
2023-01-03T04:32:04.006Z,8.26
2023-01-03T04:33:03.732Z,8.24
2023-01-03T04:34:03.727Z,8.26
2023-01-03T04:35:03.716Z,8.26
2023-01-03T04:36:03.703Z,8.41
2023-01-03T04:37:03.843Z,8.17
2023-01-03T04:38:03.699Z,8.28
2023-01-03T04:39:03.765Z,8.27
2023-01-03T04:40:03.728Z,8.31
2023-01-03T04:41:06.556Z,8.26
2023-01-03T04:42:03.793Z,8.26
2023-01-03T04:43:03.716Z,8.32
2023-01-03T04:44:03.746Z,8.24
2023-01-03T04:45:03.749Z,8.28
2023-01-03T04:46:03.942Z,8.26
2023-01-03T04:47:03.723Z,8.27
2023-01-03T04:48:03.727Z,8.27
2023-01-03T04:49:03.781Z,8.28
2023-01-03T04:50:03.761Z,8.28
2023-01-03T04:51:03.748Z,8.18
2023-01-03T04:52:06.513Z,8.26
2023-01-03T04:53:03.859Z,8.24
2023-01-03T04:54:03.783Z,8.14
2023-01-03T04:55:03.725Z,8.02
2023-01-03T04:56:03.759Z,7.95
2023-01-03T04:57:03.716Z,7.88
2023-01-03T04:58:03.744Z,7.84
2023-01-03T04:59:03.740Z,7.7
2023-01-03T05:00:03.793Z,7.75
2023-01-03T05:01:04.140Z,7.67
2023-01-03T05:02:04.318Z,7.69
2023-01-03T05:03:03.742Z,7.67
2023-01-03T05:04:03.990Z,7.61
2023-01-03T05:05:03.759Z,7.56
2023-01-03T05:06:03.747Z,7.5
2023-01-03T05:07:03.805Z,7.48
2023-01-03T05:08:03.740Z,7.32
2023-01-03T05:09:03.892Z,7.41
2023-01-03T05:10:03.757Z,7.39
2023-01-03T05:11:03.756Z,7.44
2023-01-03T05:12:03.759Z,7.37
2023-01-03T05:13:03.766Z,7.33
2023-01-03T05:14:05.994Z,7.23
2023-01-03T05:15:03.748Z,7.21
2023-01-03T05:16:03.905Z,7.18
2023-01-03T05:17:04.107Z,7.19
2023-01-03T05:18:03.751Z,7.11
2023-01-03T05:19:03.759Z,7.15
2023-01-03T05:20:03.776Z,7.04
2023-01-03T05:21:03.895Z,7.19
2023-01-03T05:22:03.776Z,7.13
2023-01-03T05:23:03.814Z,7.21
2023-01-03T05:24:06.839Z,7.19
2023-01-03T05:25:03.792Z,7.25
2023-01-03T05:26:03.782Z,7.19
2023-01-03T05:27:03.756Z,7.22
2023-01-03T05:28:03.783Z,7.28
2023-01-03T05:29:03.785Z,7.19
2023-01-03T05:30:03.783Z,7.18
2023-01-03T05:31:03.770Z,7.18
2023-01-03T05:32:04.054Z,7
2023-01-03T05:33:03.792Z,7.07
2023-01-03T05:34:03.791Z,7.01
2023-01-03T05:35:06.873Z,6.92
2023-01-03T05:36:03.770Z,7
2023-01-03T05:37:03.920Z,6.96
2023-01-03T05:38:03.767Z,6.95
2023-01-03T05:39:03.840Z,6.95
2023-01-03T05:40:03.895Z,6.87
2023-01-03T05:41:03.607Z,6.85
2023-01-03T05:42:03.816Z,6.77
2023-01-03T05:43:03.783Z,6.75
2023-01-03T05:44:03.825Z,6.75
2023-01-03T05:45:03.791Z,6.71
2023-01-03T05:46:07.361Z,6.75
2023-01-03T05:47:03.835Z,6.57
2023-01-03T05:48:03.799Z,6.6
2023-01-03T05:49:03.841Z,6.52
2023-01-03T05:50:03.841Z,6.54
2023-01-03T05:51:03.828Z,6.52
2023-01-03T05:52:03.776Z,6.54
2023-01-03T05:53:03.925Z,6.44
2023-01-03T05:54:03.866Z,6.57
2023-01-03T05:55:03.862Z,6.53
2023-01-03T05:56:03.836Z,6.44
2023-01-03T05:57:06.603Z,6.6
2023-01-03T05:58:03.814Z,6.46
2023-01-03T05:59:03.834Z,6.32
2023-01-03T06:00:03.847Z,6.44
2023-01-03T06:01:03.799Z,6.25
2023-01-03T06:02:06.990Z,6.26
2023-01-03T06:03:04.193Z,6.29
2023-01-03T06:04:04.057Z,6.25
2023-01-03T06:05:03.825Z,6.12
2023-01-03T06:06:03.792Z,6.09
2023-01-03T06:07:03.808Z,6.1
2023-01-03T06:08:06.697Z,6.22
2023-01-03T06:09:03.913Z,6.26
2023-01-03T06:10:03.881Z,6.06
2023-01-03T06:11:04.276Z,6.1
2023-01-03T06:12:03.963Z,6.16
2023-01-03T06:13:06.698Z,6.17
2023-01-03T06:14:03.846Z,6.28
2023-01-03T06:15:03.873Z,6.36
2023-01-03T06:16:03.823Z,6.25
2023-01-03T06:17:04.293Z,6.2
2023-01-03T06:18:03.836Z,6.25
2023-01-03T06:19:06.962Z,6.29
2023-01-03T06:20:03.837Z,6.26
2023-01-03T06:21:03.978Z,6.29
2023-01-03T06:22:10.958Z,6.2
2023-01-03T06:23:03.879Z,6.25
2023-01-03T06:24:06.556Z,6.28
2023-01-03T06:25:03.903Z,6.22
2023-01-03T06:26:03.849Z,6.26
2023-01-03T06:27:03.870Z,6.35
2023-01-03T06:28:03.863Z,6.36
2023-01-03T06:29:03.884Z,6.32
2023-01-03T06:30:06.585Z,6.36
2023-01-03T06:31:04.112Z,6.29
2023-01-03T06:32:12.199Z,6.19
2023-01-03T06:33:03.860Z,6.29
2023-01-03T06:34:04.020Z,6.25
2023-01-03T06:35:07.691Z,6.25
2023-01-03T06:36:03.856Z,6.22
2023-01-03T06:37:04.005Z,6.16
2023-01-03T06:38:03.858Z,6.25
2023-01-03T06:39:03.889Z,6.2
2023-01-03T06:40:03.882Z,6.25
2023-01-03T06:41:03.881Z,6.17
2023-01-03T06:42:03.887Z,6.22
2023-01-03T06:43:03.872Z,6.25
2023-01-03T06:44:06.651Z,6.34
2023-01-03T06:45:03.869Z,6.29
2023-01-03T06:46:07.083Z,6.34
2023-01-03T06:47:03.859Z,6.29
2023-01-03T06:48:03.849Z,6.32
2023-01-03T06:49:03.914Z,6.36
2023-01-03T06:50:03.874Z,6.34
2023-01-03T06:51:03.921Z,6.22
2023-01-03T06:52:03.854Z,6.35
2023-01-03T06:53:03.884Z,6.34
2023-01-03T06:54:03.916Z,6.38
2023-01-03T06:55:03.890Z,6.38
2023-01-03T06:56:03.889Z,6.34
2023-01-03T06:57:06.962Z,6.32
2023-01-03T06:58:03.861Z,6.39
2023-01-03T06:59:03.962Z,6.39
2023-01-03T07:00:04.013Z,6.34
2023-01-03T07:01:04.201Z,6.39
2023-01-03T07:02:04.522Z,6.25
2023-01-03T07:03:11.574Z,6.26
2023-01-03T07:04:04.191Z,6.19
2023-01-03T07:05:03.965Z,6.26
2023-01-03T07:06:03.913Z,6.19
2023-01-03T07:07:03.880Z,6.22
2023-01-03T07:08:06.989Z,6.07
2023-01-03T07:09:03.975Z,6.09
2023-01-03T07:10:03.905Z,6.12
2023-01-03T07:11:03.908Z,6.09
2023-01-03T07:12:03.908Z,6.02
2023-01-03T07:13:03.952Z,5.99
2023-01-03T07:14:03.933Z,5.95
2023-01-03T07:15:03.922Z,5.99
2023-01-03T07:16:04.236Z,5.9
2023-01-03T07:17:03.886Z,5.94
2023-01-03T07:18:04.921Z,5.98
2023-01-03T07:19:07.313Z,6.01
2023-01-03T07:20:03.989Z,5.94
2023-01-03T07:21:04.106Z,5.9
2023-01-03T07:22:03.902Z,5.9
2023-01-03T07:23:03.907Z,5.83
2023-01-03T07:24:03.999Z,5.91
2023-01-03T07:25:03.937Z,5.83
2023-01-03T07:26:03.920Z,5.83
2023-01-03T07:27:03.927Z,5.91
2023-01-03T07:28:13.121Z,5.87
2023-01-03T07:29:03.929Z,5.87
2023-01-03T07:30:03.906Z,5.94
2023-01-03T07:31:04.102Z,5.91
2023-01-03T07:32:03.932Z,5.94
2023-01-03T07:33:03.910Z,6.01
2023-01-03T07:34:03.921Z,5.87
2023-01-03T07:35:04.942Z,5.92
2023-01-03T07:36:12.304Z,5.79
2023-01-03T07:37:03.915Z,5.9
2023-01-03T07:38:03.921Z,5.88
2023-01-03T07:39:03.953Z,5.99
2023-01-03T07:40:03.936Z,5.94
2023-01-03T07:41:05.002Z,6.02
2023-01-03T07:42:03.917Z,5.88
2023-01-03T07:43:03.926Z,5.91
2023-01-03T07:44:03.910Z,5.87
2023-01-03T07:45:04.174Z,5.91
2023-01-03T07:46:05.121Z,5.92
2023-01-03T07:47:03.946Z,5.83
2023-01-03T07:48:04.013Z,5.84
2023-01-03T07:49:11.764Z,5.8
2023-01-03T07:50:03.965Z,5.88
2023-01-03T07:51:06.879Z,5.97
2023-01-03T07:52:03.948Z,5.97
2023-01-03T07:53:03.979Z,5.91
2023-01-03T07:54:03.947Z,5.88
2023-01-03T07:55:03.935Z,5.92
2023-01-03T07:56:07.842Z,5.9
2023-01-03T07:57:03.959Z,5.95
2023-01-03T07:58:03.955Z,5.95
2023-01-03T07:59:04.004Z,5.92
2023-01-03T08:00:03.943Z,5.94
2023-01-03T08:01:04.024Z,6.01
2023-01-03T08:02:07.156Z,6.05
2023-01-03T08:03:07.708Z,6.1
2023-01-03T08:04:04.004Z,6.07
2023-01-03T08:05:04.159Z,6.15
2023-01-03T08:06:03.967Z,6.15
2023-01-03T08:07:03.927Z,6.2
2023-01-03T08:08:04.132Z,6.26
2023-01-03T08:09:13.492Z,6.22
2023-01-03T08:10:03.977Z,6.2
2023-01-03T08:11:03.992Z,6.25
2023-01-03T08:12:04.125Z,6.26
2023-01-03T08:13:06.864Z,6.19
2023-01-03T08:14:03.978Z,6.32
2023-01-03T08:15:03.974Z,6.41
2023-01-03T08:16:04.253Z,6.35
2023-01-03T08:17:04.019Z,6.25
2023-01-03T08:18:04.031Z,6.25
2023-01-03T08:19:04.986Z,6.19
2023-01-03T08:20:05.061Z,6.29
2023-01-03T08:21:04.006Z,6.32
2023-01-03T08:22:04.001Z,6.31
2023-01-03T08:23:03.976Z,6.47
2023-01-03T08:24:07.160Z,6.49
2023-01-03T08:25:03.974Z,6.59
2023-01-03T08:26:03.987Z,6.52
2023-01-03T08:27:04.014Z,6.59
2023-01-03T08:28:03.975Z,6.59
2023-01-03T08:29:09.943Z,6.74
2023-01-03T08:30:03.985Z,6.71
2023-01-03T08:31:04.171Z,6.7
2023-01-03T08:32:04.114Z,6.75
2023-01-03T08:33:04.004Z,6.87
2023-01-03T08:34:06.432Z,6.86
2023-01-03T08:35:07.021Z,6.92
2023-01-03T08:36:07.016Z,6.92
2023-01-03T08:37:03.996Z,7.05
2023-01-03T08:38:04.013Z,7
2023-01-03T08:39:06.735Z,7.1
2023-01-03T08:40:05.678Z,7.04
2023-01-03T08:41:04.011Z,7.13
2023-01-03T08:42:04.004Z,7.13
2023-01-03T08:43:03.997Z,7.14
2023-01-03T08:44:04.006Z,7.19
2023-01-03T08:45:04.012Z,7.15
2023-01-03T08:46:10.161Z,7.18
2023-01-03T08:47:07.829Z,7.26
2023-01-03T08:48:03.998Z,7.26
2023-01-03T08:49:03.871Z,7.37
2023-01-03T08:50:07.094Z,7.32
2023-01-03T08:51:06.762Z,7.36
2023-01-03T08:52:05.081Z,7.32
2023-01-03T08:53:04.005Z,7.43
2023-01-03T08:54:03.991Z,7.46
2023-01-03T08:55:04.049Z,7.59
2023-01-03T08:56:04.015Z,7.61
2023-01-03T08:57:04.054Z,7.69
2023-01-03T08:58:04.171Z,7.55
2023-01-03T08:59:04.063Z,7.67
2023-01-03T09:00:04.063Z,7.75
2023-01-03T09:01:05.068Z,7.8
2023-01-03T09:02:07.902Z,7.88
2023-01-03T09:03:05.227Z,7.9
2023-01-03T09:04:04.339Z,8.05
2023-01-03T09:05:04.075Z,8.02
2023-01-03T09:06:04.078Z,8.08
2023-01-03T09:07:04.030Z,8.16
2023-01-03T09:08:04.082Z,8.11
2023-01-03T09:09:04.035Z,8.09
2023-01-03T09:10:04.066Z,8.17
2023-01-03T09:11:04.061Z,8.14
2023-01-03T09:12:04.045Z,8.2
2023-01-03T09:13:07.157Z,8.27
2023-01-03T09:14:04.022Z,8.31
2023-01-03T09:15:04.090Z,8.26
2023-01-03T09:16:04.477Z,8.27
2023-01-03T09:17:04.296Z,8.28
2023-01-03T09:18:04.076Z,8.42
2023-01-03T09:19:04.023Z,8.53
2023-01-03T09:20:04.085Z,8.54
2023-01-03T09:21:04.088Z,8.5
2023-01-03T09:22:04.077Z,8.52
2023-01-03T09:23:04.068Z,8.54
2023-01-03T09:24:06.898Z,8.56
2023-01-03T09:25:04.080Z,8.5
2023-01-03T09:26:04.051Z,8.46
2023-01-03T09:27:04.228Z,8.5
2023-01-03T09:28:04.039Z,8.64
2023-01-03T09:29:04.074Z,8.75
2023-01-03T09:30:04.180Z,8.79
2023-01-03T09:31:04.223Z,8.81
2023-01-03T09:32:04.288Z,8.72
2023-01-03T09:33:04.070Z,8.72
2023-01-03T09:34:04.059Z,8.81
2023-01-03T09:35:05.329Z,8.81
2023-01-03T09:36:04.236Z,8.9
2023-01-03T09:37:04.102Z,8.86
2023-01-03T09:38:07.081Z,8.84
2023-01-03T09:39:04.066Z,8.9
2023-01-03T09:40:04.188Z,8.99
2023-01-03T09:41:04.057Z,8.93
2023-01-03T09:42:04.089Z,8.96
2023-01-03T09:43:05.076Z,8.95
2023-01-03T09:44:04.108Z,8.92
2023-01-03T09:45:04.128Z,8.95
2023-01-03T09:46:07.192Z,8.97
2023-01-03T09:47:04.306Z,8.97
2023-01-03T09:48:04.083Z,9
2023-01-03T09:49:04.102Z,9
2023-01-03T09:51:20.896Z,9.05
2023-01-03T09:51:36.896Z,9.15
2023-01-03T09:52:36.906Z,9.15
2023-01-03T09:53:36.898Z,9.15
2023-01-03T09:54:37.913Z,9.11
2023-01-03T09:55:36.927Z,9.15
2023-01-03T09:56:36.911Z,9.18
2023-01-03T09:57:36.887Z,9.13
2023-01-03T09:58:37.017Z,9.24
2023-01-03T09:59:39.919Z,9.18
2023-01-03T10:00:37.117Z,9.31
2023-01-03T10:01:37.631Z,9.21
2023-01-03T10:02:37.286Z,9.18
2023-01-03T10:03:37.112Z,9.24
2023-01-03T10:04:36.897Z,9.24
2023-01-03T10:05:36.927Z,9.29
2023-01-03T10:06:36.911Z,9.27
2023-01-03T10:07:36.947Z,9.3
2023-01-03T10:08:36.916Z,9.3
2023-01-03T10:09:36.994Z,9.34
2023-01-03T10:10:40.018Z,9.12
2023-01-03T10:11:36.920Z,9.19
2023-01-03T10:12:36.903Z,9.15
2023-01-03T10:13:36.962Z,9.16
2023-01-03T10:14:36.913Z,9.26
2023-01-03T10:15:36.986Z,9.34
2023-01-03T10:16:37.136Z,9.33
2023-01-03T10:17:36.907Z,9.3
2023-01-03T10:18:36.903Z,9.31
2023-01-03T10:19:36.919Z,9.4
2023-01-03T10:20:38.169Z,9.51
2023-01-03T10:21:39.927Z,9.47
2023-01-03T10:22:36.920Z,9.44
2023-01-03T10:23:36.931Z,9.55
2023-01-03T10:24:36.932Z,9.47
2023-01-03T10:25:36.980Z,9.51
2023-01-03T10:26:37.842Z,9.49
2023-01-03T10:27:36.929Z,9.47
2023-01-03T10:28:36.929Z,9.51
2023-01-03T10:29:36.904Z,9.48
2023-01-03T10:30:36.932Z,9.51
2023-01-03T10:31:37.259Z,9.63
2023-01-03T10:32:40.105Z,9.51
2023-01-03T10:33:36.936Z,9.55
2023-01-03T10:34:37.936Z,9.54
2023-01-03T10:35:37.044Z,9.62
2023-01-03T10:36:36.942Z,9.63
2023-01-03T10:37:37.014Z,9.58
2023-01-03T10:38:53.372Z,9.64
2023-01-03T10:39:37.360Z,9.66
2023-01-03T10:40:37.070Z,9.7
2023-01-03T10:41:36.991Z,9.73
2023-01-03T10:42:37.011Z,9.8
2023-01-03T10:43:40.086Z,9.9
2023-01-03T10:44:37.064Z,9.81
2023-01-03T10:45:51.897Z,9.81
2023-01-03T10:46:37.302Z,9.73
2023-01-03T10:47:36.978Z,9.7
2023-01-03T10:49:28.808Z,9.81
2023-01-03T10:49:39.006Z,9.76
2023-01-03T10:50:38.985Z,9.8
2023-01-03T10:51:46.942Z,9.81
2023-01-03T10:52:39.002Z,9.84
2023-01-03T10:53:38.963Z,9.8
2023-01-03T10:54:39.051Z,9.76
2023-01-03T10:55:39.089Z,9.8
2023-01-03T10:56:39.051Z,9.77
2023-01-03T10:57:39.053Z,9.77
2023-01-03T10:58:41.330Z,9.72
2023-01-03T10:59:39.013Z,9.77
2023-01-03T11:00:39.026Z,9.81
2023-01-03T11:01:39.273Z,9.73
2023-01-03T11:02:39.724Z,9.8
2023-01-03T11:03:39.214Z,9.8
2023-01-03T11:04:39.009Z,9.63
2023-01-03T11:05:39.007Z,9.69
2023-01-03T11:06:39.016Z,9.63
2023-01-03T11:07:39.004Z,9.67
2023-01-03T11:08:38.984Z,9.63
2023-01-03T11:09:39.005Z,9.69
2023-01-03T11:10:38.994Z,9.66
2023-01-03T11:11:39.029Z,9.63
2023-01-03T11:12:39.044Z,9.63
2023-01-03T11:13:39.024Z,9.67
2023-01-03T11:14:39.021Z,9.58
2023-01-03T11:15:43.562Z,9.73
2023-01-03T11:16:39.244Z,9.58
2023-01-03T11:17:41.972Z,9.66
2023-01-03T11:18:39.010Z,9.73
2023-01-03T11:19:38.999Z,9.77
2023-01-03T11:20:39.024Z,9.76
2023-01-03T11:21:39.015Z,9.74
2023-01-03T11:22:42.358Z,9.85
2023-01-03T11:23:39.195Z,9.77
2023-01-03T11:24:39.005Z,9.84
2023-01-03T11:25:39.047Z,9.82
2023-01-03T11:26:41.868Z,9.81
2023-01-03T11:27:39.327Z,9.72
2023-01-03T11:28:42.045Z,9.63
2023-01-03T11:29:39.009Z,9.77
2023-01-03T11:30:39.616Z,9.73
2023-01-03T11:31:39.230Z,9.76
2023-01-03T11:32:39.027Z,9.84
2023-01-03T11:33:39.687Z,9.74
2023-01-03T11:35:26.743Z,9.73
2023-01-03T11:35:39.071Z,9.77
2023-01-03T11:36:39.045Z,9.7
2023-01-03T11:37:42.051Z,9.8
2023-01-03T11:38:39.053Z,9.8
2023-01-03T11:39:39.053Z,9.8
2023-01-03T11:40:39.080Z,9.87
2023-01-03T11:41:39.073Z,10.02
2023-01-03T11:42:39.053Z,10.15
2023-01-03T11:43:39.088Z,10.13
2023-01-03T11:44:39.087Z,10.23
2023-01-03T11:45:48.275Z,10.27
2023-01-03T11:46:39.295Z,10.31
2023-01-03T11:47:39.068Z,10.42
2023-01-03T11:48:41.874Z,10.45
2023-01-03T11:49:39.068Z,10.58
2023-01-03T11:50:39.092Z,10.64
2023-01-03T11:51:39.037Z,10.57
2023-01-03T11:52:39.090Z,10.58
2023-01-03T11:53:42.033Z,10.62
2023-01-03T11:54:39.103Z,10.71
2023-01-03T11:55:39.106Z,11.05
2023-01-03T11:56:39.040Z,10.92
2023-01-03T11:57:39.110Z,10.9
2023-01-03T11:58:39.123Z,10.98
2023-01-03T11:59:41.949Z,11.02
2023-01-03T12:00:39.139Z,11.07
2023-01-03T12:01:44.358Z,10.92
2023-01-03T12:02:39.187Z,10.98
2023-01-03T12:03:39.758Z,10.98
2023-01-03T12:04:42.254Z,10.8
2023-01-03T12:05:39.084Z,10.86
2023-01-03T12:06:39.111Z,10.87
2023-01-03T12:07:52.687Z,10.76
2023-01-03T12:08:39.137Z,10.8
2023-01-03T12:09:39.092Z,10.87
2023-01-03T12:10:41.890Z,10.82
2023-01-03T12:11:39.071Z,10.82
2023-01-03T12:12:39.095Z,10.86
2023-01-03T12:13:39.084Z,10.79
2023-01-03T12:14:39.155Z,10.86
2023-01-03T12:15:40.890Z,10.8
2023-01-03T12:16:39.436Z,10.9
2023-01-03T12:17:39.119Z,10.94
2023-01-03T12:18:39.252Z,10.84
2023-01-03T12:19:39.094Z,10.82
2023-01-03T12:20:39.126Z,10.9
2023-01-03T12:21:41.876Z,10.89
2023-01-03T12:22:39.101Z,10.82
2023-01-03T12:23:39.176Z,10.84
2023-01-03T12:24:39.120Z,10.77
2023-01-03T12:25:39.147Z,10.86
2023-01-03T12:26:41.949Z,10.76
2023-01-03T12:27:39.098Z,10.82
2023-01-03T12:28:39.127Z,10.94
2023-01-03T12:29:39.115Z,10.87
2023-01-03T12:30:39.136Z,10.97
2023-01-03T12:31:39.867Z,11.01
2023-01-03T12:32:39.130Z,11
2023-01-03T12:33:39.099Z,11.13
2023-01-03T12:34:39.143Z,11.08
2023-01-03T12:35:39.155Z,11.16
2023-01-03T12:36:39.118Z,11.15
2023-01-03T12:37:41.995Z,11.15
2023-01-03T12:38:39.134Z,11.19
2023-01-03T12:39:39.271Z,11.2
2023-01-03T12:40:39.187Z,11.16
2023-01-03T12:41:39.119Z,11.05
2023-01-03T12:42:39.201Z,11.07
2023-01-03T12:43:39.149Z,11.1
2023-01-03T12:44:39.139Z,11.13
2023-01-03T12:45:41.086Z,11.15
2023-01-03T12:46:39.380Z,11.16
2023-01-03T12:47:39.190Z,11.02
2023-01-03T12:48:42.026Z,11.15
2023-01-03T12:49:39.151Z,11.12
2023-01-03T12:50:39.167Z,11.15
2023-01-03T12:51:39.148Z,11.1
2023-01-03T12:52:39.156Z,11.18
2023-01-03T12:53:39.236Z,11.2
2023-01-03T12:54:39.142Z,11.15
2023-01-03T12:55:39.187Z,11.18
2023-01-03T12:56:39.157Z,11.27
2023-01-03T12:57:39.165Z,11.33
2023-01-03T12:58:44.153Z,11.34
2023-01-03T12:59:42.206Z,11.23
2023-01-03T13:00:39.193Z,11.23
2023-01-03T13:01:39.644Z,11.31
2023-01-03T13:02:39.930Z,11.2
2023-01-03T13:03:39.491Z,11.26
2023-01-03T13:04:39.207Z,11.22
2023-01-03T13:05:39.211Z,11.1
2023-01-03T13:06:39.172Z,11.15
2023-01-03T13:07:39.184Z,11.02
2023-01-03T13:08:39.207Z,10.97
2023-01-03T13:09:39.253Z,10.97
2023-01-03T13:10:41.967Z,11.05
2023-01-03T13:11:39.206Z,11.08
2023-01-03T13:12:39.174Z,10.98
2023-01-03T13:13:39.198Z,10.87